Time;durP1;ratioP1;P1;durP2;ratioP2;P2;SDS_P1;SDS_P2;PMS_P1;PMS_P2;Temp;Humidity;BMP_temperature;BMP_pressure;BME280_temperature;BME280_humidity;BME280_pressure;Samples;Min_cycle;Max_cycle;Signal;HPM_P1;HPM_P2
2022/09/27 00:01:20;;;;;;;;;;;;;;;9.92;71.35;99408.41;1636126;86;20140;-76
2022/09/27 00:04:04;;;;;;;;;;;;;;;9.93;71.27;99397.63;1626988;86;20108;-76
2022/09/27 00:06:49;;;;;;;;;;;;;;;9.95;71.39;99397.97;1619883;86;20162;-76
2022/09/27 00:09:33;;;;;;;;;;;;;;;10.01;71.38;99391.77;1622572;86;20164;-76
2022/09/27 00:12:18;;;;;;;;;;;;;;;10.06;71.50;99384.71;1638976;86;20119;-76
2022/09/27 00:15:03;;;;;;;;;;;;;;;10.11;71.59;99378.94;1611353;86;20142;-76
2022/09/27 00:17:50;;;;;;;;;;;;;;;10.15;71.62;99371.48;1617383;86;20180;-76
2022/09/27 00:20:34;;;;;;;;;;;;;;;10.22;71.60;99376.03;1625079;86;20147;-76
2022/09/27 00:23:19;;;;;;;;;;;;;;;10.26;71.64;99372.00;1627611;86;20345;-76
2022/09/27 00:26:06;;;;;;;;;;;;;;;10.30;71.69;99370.16;1641401;86;20152;-76
2022/09/27 00:28:51;;;;;;;;;;;;;;;10.34;71.87;99369.15;1621159;86;20211;-76
2022/09/27 00:31:37;;;;;;;;;;;;;;;10.36;71.73;99367.36;1624241;86;20200;-76
2022/09/27 00:34:24;;;;;;;;;;;;;;;10.42;71.70;99364.97;1645181;86;20306;-76
2022/09/27 00:37:10;;;;;;;;;;;;;;;10.45;71.73;99370.88;1618695;86;20498;-76
2022/09/27 00:39:54;;;;;;;;;;;;;;;10.46;71.72;99367.84;1645908;85;20207;-75
2022/09/27 00:42:39;;;;;;;;;;;;;;;10.47;71.71;99361.33;1626081;86;20202;-75
2022/09/27 00:45:24;;;;;;;;;;;;;;;10.50;71.69;99363.80;1618618;86;20165;-75
2022/09/27 00:48:10;;;;;;;;;;;;;;;10.54;71.87;99356.78;1629092;86;20194;-76
2022/09/27 00:50:57;;;;;;;;;;;;;;;10.54;71.86;99351.61;1651175;86;20187;-76
2022/09/27 00:53:50;;;;;;;;;;;;;;;10.55;71.84;99350.72;1617727;86;20197;-76
2022/09/27 00:56:35;;;;;;;;;;;;;;;10.54;71.83;99347.73;1645949;86;20155;-76
2022/09/27 00:59:23;;;;;;;;;;;;;;;10.55;71.80;99350.72;1636120;86;20173;-76
2022/09/27 01:02:09;;;;;;;;;;;;;;;10.51;71.80;99341.39;1618857;86;20236;-76
2022/09/27 01:04:54;;;;;;;;;;;;;;;10.49;71.88;99332.39;1628657;86;20187;-76
2022/09/27 01:07:38;;;;;;;;;;;;;;;10.48;71.78;99334.59;1633842;86;20197;-76
2022/09/27 01:10:26;;;;;;;;;;;;;;;10.46;71.84;99330.37;1623767;86;21310;-76
2022/09/27 01:13:20;;;;;;;;;;;;;;;10.41;71.86;99330.53;1619612;86;20218;-76
2022/09/27 01:16:28;;;;;;;;;;;;;;;10.39;71.87;99327.64;1634983;86;20201;-76
2022/09/27 01:19:16;;;;;;;;;;;;;;;10.35;71.85;99323.03;1608420;86;20235;-76
2022/09/27 01:22:19;;;;;;;;;;;;;;;10.32;71.92;99317.98;1639100;86;20208;-76
2022/09/27 01:25:07;;;;;;;;;;;;;;;10.29;72.10;99311.62;1624202;86;20509;-76
2022/09/27 01:27:56;;;;;;;;;;;;;;;10.26;71.96;99303.98;1622863;84;20229;-76
2022/09/27 01:30:49;;;;;;;;;;;;;;;10.23;71.96;99302.80;1627458;86;20150;-76
2022/09/27 01:34:12;;;;;;;;;;;;;;;10.22;71.97;99301.11;1612121;86;20196;-76
2022/09/27 01:37:00;;;;;;;;;;;;;;;10.19;71.95;99303.77;1619631;86;20196;-76
2022/09/27 01:40:00;;;;;;;;;;;;;;;10.13;71.98;99291.91;1626660;86;20811;-75
2022/09/27 01:43:00;;;;;;;;;;;;;;;10.10;72.09;99290.73;1633246;86;20466;-75
2022/09/27 01:45:57;;;;;;;;;;;;;;;10.07;72.05;99289.99;1581171;87;20649;-75
2022/09/27 01:48:44;;;;;;;;;;;;;;;10.05;72.16;99287.91;1650442;86;20187;-75
2022/09/27 01:51:33;;;;;;;;;;;;;;;9.99;72.23;99279.09;1652025;86;20178;-75
2022/09/27 01:54:21;;;;;;;;;;;;;;;9.96;72.20;99274.88;1640790;85;20199;-75
2022/09/27 01:57:07;;;;;;;;;;;;;;;9.93;72.19;99270.66;1641534;85;20207;-75
2022/09/27 02:00:05;;;;;;;;;;;;;;;9.91;72.30;99263.86;1644477;85;20214;-76
2022/09/27 02:02:59;;;;;;;;;;;;;;;9.88;72.35;99263.52;1628015;86;20251;-76
2022/09/27 02:05:50;;;;;;;;;;;;;;;9.86;72.37;99262.76;1661931;85;20550;-76
2022/09/27 02:08:40;;;;;;;;;;;;;;;9.84;72.41;99263.71;1639133;83;20184;-76
2022/09/27 02:11:26;;;;;;;;;;;;;;;9.84;72.50;99261.13;1638935;85;20181;-76
2022/09/27 02:14:20;;;;;;;;;;;;;;;9.82;72.55;99262.92;1639114;85;20201;-76
2022/09/27 02:17:17;;;;;;;;;;;;;;;9.78;72.59;99257.02;1637500;85;20166;-76
2022/09/27 02:20:17;;;;;;;;;;;;;;;9.76;72.66;99258.81;1637291;85;20193;-76
2022/09/27 02:23:22;;;;;;;;;;;;;;;9.77;72.50;99259.66;1650935;85;20491;-76
2022/09/27 02:26:23;;;;;;;;;;;;;;;9.77;72.44;99254.04;1645652;85;20173;-76
2022/09/27 02:29:14;;;;;;;;;;;;;;;9.78;72.52;99251.02;1668490;85;20361;-76
2022/09/27 02:31:59;;;;;;;;;;;;;;;9.78;72.49;99247.98;1632956;86;20231;-76
2022/09/27 02:34:44;;;;;;;;;;;;;;;9.79;72.58;99239.34;1642009;86;20589;-76
2022/09/27 02:37:29;;;;;;;;;;;;;;;9.82;72.77;99239.23;1634196;86;21233;-76
2022/09/27 02:40:15;;;;;;;;;;;;;;;9.85;72.68;99235.70;1635347;86;20345;-77
2022/09/27 02:43:01;;;;;;;;;;;;;;;9.85;72.68;99224.93;1628840;86;20290;-76
2022/09/27 02:45:55;;;;;;;;;;;;;;;9.89;72.77;99219.17;1628737;86;20217;-76
2022/09/27 02:48:52;;;;;;;;;;;;;;;9.92;72.84;99217.33;1637724;86;20169;-77
2022/09/27 02:52:02;;;;;;;;;;;;;;;9.96;72.81;99216.33;1629326;86;20197;-76
2022/09/27 02:55:07;;;;;;;;;;;;;;;9.99;72.84;99210.20;1623873;86;20168;-76
2022/09/27 02:58:04;;;;;;;;;;;;;;;10.03;72.87;99213.52;1629235;86;20209;-76
2022/09/27 03:01:04;;;;;;;;;;;;;;;10.08;72.87;99202.58;1638906;86;20564;-76
2022/09/27 03:03:52;;;;;;;;;;;;;;;10.10;72.84;99200.34;1645414;86;20215;-76
2022/09/27 03:06:42;;;;;;;;;;;;;;;10.12;72.86;99197.25;1625220;86;20227;-76
2022/09/27 03:09:29;;;;;;;;;;;;;;;10.14;72.97;99191.58;1640259;86;20201;-76
2022/09/27 03:12:27;;;;;;;;;;;;;;;10.17;72.94;99190.62;1642704;84;20193;-76
2022/09/27 03:15:12;;;;;;;;;;;;;;;10.20;72.99;99184.92;1628429;86;20176;-76
2022/09/27 03:17:57;;;;;;;;;;;;;;;10.22;73.01;99186.16;1629638;86;20194;-76
2022/09/27 03:20:41;;;;;;;;;;;;;;;10.24;73.03;99172.73;1653822;86;20219;-76
2022/09/27 03:23:26;;;;;;;;;;;;;;;10.25;73.04;99174.42;1647337;86;20548;-76
2022/09/27 03:26:10;;;;;;;;;;;;;;;10.25;73.12;99170.55;1642491;86;20226;-76
2022/09/27 03:28:56;;;;;;;;;;;;;;;10.26;73.04;99179.53;1658215;86;20219;-76
2022/09/27 03:31:40;;;;;;;;;;;;;;;10.26;73.01;99180.82;1643690;86;20219;-76
2022/09/27 03:34:25;;;;;;;;;;;;;;;10.26;72.98;99181.27;1618225;86;20233;-76
2022/09/27 03:37:10;;;;;;;;;;;;;;;10.25;73.00;99171.84;1635662;86;20220;-76
2022/09/27 03:39:55;;;;;;;;;;;;;;;10.24;73.00;99177.91;1644545;86;33107;-76
2022/09/27 03:42:40;;;;;;;;;;;;;;;10.20;73.00;99174.59;1633381;86;20196;-76
2022/09/27 03:45:24;;;;;;;;;;;;;;;10.19;73.00;99169.45;1619886;86;20706;-76
2022/09/27 03:48:09;;;;;;;;;;;;;;;10.16;73.06;99176.02;1641235;86;20291;-76
2022/09/27 03:50:53;;;;;;;;;;;;;;;10.13;73.10;99165.80;1640758;84;20200;-76
2022/09/27 03:53:38;;;;;;;;;;;;;;;10.10;73.15;99162.88;1627816;86;20643;-76
2022/09/27 03:56:23;;;;;;;;;;;;;;;10.07;73.21;99153.12;1636048;84;20253;-76
2022/09/27 03:59:08;;;;;;;;;;;;;;;10.06;73.20;99152.27;1635688;86;20669;-76
2022/09/27 04:01:53;;;;;;;;;;;;;;;10.05;73.19;99152.33;1638185;86;20187;-76
2022/09/27 04:04:38;;;;;;;;;;;;;;;10.04;73.19;99148.91;1656548;86;20207;-76
2022/09/27 04:07:22;;;;;;;;;;;;;;;10.04;73.20;99148.91;1646843;86;20189;-76
2022/09/27 04:10:09;;;;;;;;;;;;;;;10.05;73.18;99141.55;1629094;86;20178;-77
2022/09/27 04:12:53;;;;;;;;;;;;;;;10.05;73.24;99138.97;1634175;86;20225;-76
2022/09/27 04:15:38;;;;;;;;;;;;;;;10.06;73.22;99134.65;1651528;86;20253;-76
2022/09/27 04:18:23;;;;;;;;;;;;;;;10.03;73.23;99127.02;1638449;86;20137;-76
2022/09/27 04:21:08;;;;;;;;;;;;;;;10.03;73.24;99128.30;1645529;86;20574;-76
2022/09/27 04:23:53;;;;;;;;;;;;;;;10.01;73.25;99121.91;1632835;86;20619;-76
2022/09/27 04:26:38;;;;;;;;;;;;;;;10.02;73.22;99129.20;1630128;86;20202;-76
2022/09/27 04:29:23;;;;;;;;;;;;;;;10.00;73.23;99120.22;1630130;84;20217;-78
2022/09/27 04:32:08;;;;;;;;;;;;;;;10.00;73.22;99119.38;1643650;86;20126;-79
2022/09/27 04:37:57;;;;;;;;;;;;;;;9.98;73.25;99118.59;1645519;84;20225;-79
2022/09/27 04:40:41;;;;;;;;;;;;;;;9.96;73.27;99114.33;1647369;85;20485;-79
2022/09/27 04:43:26;;;;;;;;;;;;;;;9.93;73.29;99109.73;1650263;85;20215;-80
2022/09/27 04:46:11;;;;;;;;;;;;;;;9.91;73.39;99112.37;1652519;85;20214;-80
2022/09/27 04:48:56;;;;;;;;;;;;;;;9.91;73.37;99114.95;1642224;85;20222;-80
2022/09/27 04:51:41;;;;;;;;;;;;;;;9.91;73.45;99114.95;1639531;84;20237;-79
2022/09/27 04:54:25;;;;;;;;;;;;;;;9.91;73.43;99118.83;1641841;85;20568;-79
2022/09/27 04:57:11;;;;;;;;;;;;;;;9.92;73.47;99116.63;1654465;85;20568;-80
2022/09/27 04:59:59;;;;;;;;;;;;;;;9.94;73.51;99114.84;1643908;85;20221;-80
2022/09/27 05:02:43;;;;;;;;;;;;;;;9.99;73.57;99116.41;1643333;85;20525;-79
2022/09/27 05:05:28;;;;;;;;;;;;;;;10.02;73.56;99109.84;1646722;85;20194;-79
2022/09/27 05:08:13;;;;;;;;;;;;;;;10.05;73.56;99113.59;1645382;85;20192;-79
2022/09/27 05:10:58;;;;;;;;;;;;;;;10.07;73.60;99105.34;1663372;85;20250;-79
2022/09/27 05:13:42;;;;;;;;;;;;;;;10.08;73.70;99100.56;1635257;85;20211;-79
2022/09/27 05:16:27;;;;;;;;;;;;;;;10.09;73.77;99100.51;1648006;85;20621;-79
2022/09/27 05:19:11;;;;;;;;;;;;;;;10.12;73.70;99093.09;1646611;85;20202;-79
2022/09/27 05:21:56;;;;;;;;;;;;;;;10.16;73.75;99095.50;1651926;85;20203;-79
2022/09/27 05:24:41;;;;;;;;;;;;;;;10.20;73.78;99091.09;1659708;85;20576;-79
2022/09/27 05:27:25;;;;;;;;;;;;;;;10.25;73.75;99086.59;1651289;85;20433;-79
2022/09/27 05:30:10;;;;;;;;;;;;;;;10.30;73.78;99091.58;1634661;85;20708;-79
2022/09/27 05:32:55;;;;;;;;;;;;;;;10.35;73.89;99088.36;1640730;86;20177;-79
2022/09/27 05:35:41;;;;;;;;;;;;;;;10.39;73.94;99086.05;1644073;86;20237;-79
2022/09/27 05:38:26;;;;;;;;;;;;;;;10.46;73.84;99084.42;1637184;86;20191;-79
2022/09/27 05:41:10;;;;;;;;;;;;;;;10.54;73.90;99086.25;1648507;86;21203;-79
2022/09/27 05:43:55;;;;;;;;;;;;;;;10.63;73.98;99088.08;1630583;86;20479;-79
2022/09/27 05:46:40;;;;;;;;;;;;;;;10.69;73.99;99092.99;1646942;86;20191;-80
2022/09/27 05:49:25;;;;;;;;;;;;;;;10.75;73.99;99086.28;1639336;86;20538;-80
2022/09/27 05:52:10;;;;;;;;;;;;;;;10.86;73.87;99091.86;1638562;86;20842;-80
2022/09/27 05:54:54;;;;;;;;;;;;;;;10.95;73.99;99091.44;1640718;86;20205;-80
2022/09/27 05:57:39;;;;;;;;;;;;;;;11.01;74.04;99084.72;1639612;86;20196;-80
2022/09/27 06:00:25;;;;;;;;;;;;;;;11.04;73.92;99089.77;1646521;86;20192;-80
2022/09/27 06:03:12;;;;;;;;;;;;;;;11.06;73.94;99085.37;1637990;84;20225;-80
2022/09/27 06:06:00;;;;;;;;;;;;;;;11.07;74.04;99083.62;1633408;86;21365;-80
2022/09/27 06:08:44;;;;;;;;;;;;;;;11.08;73.97;99090.02;1651265;86;20177;-80
2022/09/27 06:11:29;;;;;;;;;;;;;;;11.09;74.00;99085.23;1637213;86;20181;-80
2022/09/27 06:14:13;;;;;;;;;;;;;;;11.13;73.99;99083.36;1660111;86;20223;-80
2022/09/27 06:16:58;;;;;;;;;;;;;;;11.15;74.04;99084.98;1625796;86;20547;-80
2022/09/27 06:19:43;;;;;;;;;;;;;;;11.19;74.02;99081.36;1628125;86;20203;-80
2022/09/27 06:22:27;;;;;;;;;;;;;;;11.23;74.00;99091.12;1636157;86;20160;-80
2022/09/27 06:25:12;;;;;;;;;;;;;;;11.26;74.07;99087.11;1632130;86;20201;-80
2022/09/27 06:27:57;;;;;;;;;;;;;;;11.28;74.17;99084.84;1650466;86;20220;-80
2022/09/27 06:30:44;;;;;;;;;;;;;;;11.33;74.19;99080.77;1630987;85;20493;-80
2022/09/27 06:33:29;;;;;;;;;;;;;;;11.36;74.12;99084.52;1663536;85;20207;-80
2022/09/27 06:36:13;;;;;;;;;;;;;;;11.40;74.14;99089.94;1670006;85;20219;-80
2022/09/27 06:39:00;;;;;;;;;;;;;;;11.45;74.13;99092.30;1656125;84;20231;-80
2022/09/27 06:41:45;;;;;;;;;;;;;;;11.50;74.19;99090.34;1646344;84;20207;-80
2022/09/27 06:44:30;;;;;;;;;;;;;;;11.53;74.34;99082.45;1656602;85;20181;-79
2022/09/27 06:47:15;;;;;;;;;;;;;;;11.58;74.20;99083.08;1651626;85;20236;-79
2022/09/27 06:50:03;;;;;;;;;;;;;;;11.63;74.28;99088.06;1664094;85;20643;-79
2022/09/27 06:52:48;;;;;;;;;;;;;;;11.69;74.17;99088.63;1655709;85;20214;-79
2022/09/27 06:55:32;;;;;;;;;;;;;;;11.76;74.26;99091.33;1633220;85;20216;-79
2022/09/27 07:01:21;;;;;;;;;;;;;;;11.87;74.26;99087.83;1647715;85;21163;-79
2022/09/27 07:04:06;;;;;;;;;;;;;;;11.94;74.25;99085.80;1644043;85;20253;-79
2022/09/27 07:06:50;;;;;;;;;;;;;;;11.99;74.17;99085.55;1643100;85;20622;-79
2022/09/27 07:09:37;;;;;;;;;;;;;;;12.01;74.19;99086.33;1644845;85;20539;-79
2022/09/27 07:12:23;;;;;;;;;;;;;;;12.05;74.16;99083.98;1643297;85;20184;-79
2022/09/27 07:15:09;;;;;;;;;;;;;;;12.07;74.17;99092.52;1633638;85;20177;-79
2022/09/27 07:17:57;;;;;;;;;;;;;;;12.08;74.18;99086.43;1644626;85;20143;-79
2022/09/27 07:20:42;;;;;;;;;;;;;;;12.11;74.21;99091.02;1664678;85;20453;-79
2022/09/27 07:23:27;;;;;;;;;;;;;;;12.15;74.20;99096.89;1628913;85;20451;-79
2022/09/27 07:26:12;;;;;;;;;;;;;;;12.16;74.09;99090.34;1635940;85;20156;-79
2022/09/27 07:28:57;;;;;;;;;;;;;;;12.19;74.19;99098.44;1657052;85;20209;-79
2022/09/27 07:31:42;;;;;;;;;;;;;;;12.20;74.11;99094.47;1644693;85;20185;-79
2022/09/27 07:34:26;;;;;;;;;;;;;;;12.23;74.27;99094.78;1650530;85;20461;-79
2022/09/27 07:37:12;;;;;;;;;;;;;;;12.25;74.16;99091.67;1647684;85;20444;-79
2022/09/27 07:39:57;;;;;;;;;;;;;;;12.33;74.23;99089.55;1657835;85;20213;-79
2022/09/27 07:42:42;;;;;;;;;;;;;;;12.45;74.34;99089.42;1663435;85;20282;-79
2022/09/27 07:45:26;;;;;;;;;;;;;;;12.57;74.24;99084.46;1637212;85;20231;-79
2022/09/27 07:48:15;;;;;;;;;;;;;;;12.72;74.15;99084.63;1661279;85;20207;-79
2022/09/27 07:51:00;;;;;;;;;;;;;;;12.86;74.29;99087.39;1650377;85;20628;-79
2022/09/27 07:53:45;;;;;;;;;;;;;;;13.00;74.17;99087.51;1654142;84;20234;-79
2022/09/27 07:56:29;;;;;;;;;;;;;;;13.09;74.08;99083.16;1656682;85;20253;-79
2022/09/27 07:59:14;;;;;;;;;;;;;;;13.17;74.03;99083.64;1655529;85;20558;-80
2022/09/27 08:01:59;;;;;;;;;;;;;;;13.23;73.96;99090.27;1655179;85;20964;-80
2022/09/27 08:04:46;;;;;;;;;;;;;;;13.24;73.86;99086.30;1658905;84;20321;-80
2022/09/27 08:07:31;;;;;;;;;;;;;;;13.29;73.97;99087.82;1661178;85;20604;-80
2022/09/27 08:10:16;;;;;;;;;;;;;;;13.34;73.92;99083.23;1643440;85;20467;-79
2022/09/27 08:13:03;;;;;;;;;;;;;;;13.38;73.98;99075.20;1648844;85;20299;-79
2022/09/27 08:15:47;;;;;;;;;;;;;;;13.47;73.98;99078.63;1653869;85;20217;-79
2022/09/27 08:18:32;;;;;;;;;;;;;;;13.53;73.91;99077.44;1634578;85;20586;-79
2022/09/27 08:21:17;;;;;;;;;;;;;;;13.59;73.94;99078.41;1663253;85;20489;-79
2022/09/27 08:24:02;;;;;;;;;;;;;;;13.63;73.90;99073.44;1643434;85;20200;-79
2022/09/27 08:26:47;;;;;;;;;;;;;;;13.66;73.81;99075.03;1647786;85;21109;-79
2022/09/27 08:29:32;;;;;;;;;;;;;;;13.65;73.81;99079.84;1637298;85;20529;-79
2022/09/27 08:32:18;;;;;;;;;;;;;;;13.68;73.90;99076.63;1650475;85;20197;-79
2022/09/27 08:35:02;;;;;;;;;;;;;;;13.71;73.84;99074.33;1653277;85;20195;-79
2022/09/27 08:37:56;;;;;;;;;;;;;;;13.73;73.82;99071.19;1651615;85;20200;-79
2022/09/27 08:40:47;;;;;;;;;;;;;;;13.75;73.79;99073.24;1659395;85;20186;-79
2022/09/27 08:43:38;;;;;;;;;;;;;;;13.80;73.75;99081.17;1652644;85;20525;-79
2022/09/27 08:46:33;;;;;;;;;;;;;;;13.83;73.69;99067.18;1586546;88;20356;-79
2022/09/27 08:49:23;;;;;;;;;;;;;;;13.86;73.78;99075.64;1617384;87;20219;-79
2022/09/27 08:52:15;;;;;;;;;;;;;;;13.93;73.71;99075.31;1623348;87;20251;-79
2022/09/27 08:55:03;;;;;;;;;;;;;;;14.00;73.61;99072.77;1570113;89;20224;-79
2022/09/27 08:57:53;;;;;;;;;;;;;;;14.10;73.67;99076.51;1620910;87;20530;-79
2022/09/27 09:00:39;;;;;;;;;;;;;;;14.18;73.53;99079.52;1614514;87;20229;-79
2022/09/27 09:03:26;;;;;;;;;;;;;;;14.28;73.64;99072.89;1601968;87;20266;-79
2022/09/27 09:06:17;;;;;;;;;;;;;;;14.37;73.62;99069.78;1607011;87;20212;-79
2022/09/27 09:09:14;;;;;;;;;;;;;;;14.40;73.38;99073.52;1606376;87;20177;-79
2022/09/27 09:15:53;;;;;;;;;;;;;;;14.47;73.16;99065.77;1593924;87;20225;-79
2022/09/27 09:18:42;;;;;;;;;;;;;;;14.49;73.11;99058.72;1609864;87;20222;-79
2022/09/27 09:21:52;;;;;;;;;;;;;;;14.57;73.33;99059.55;1578753;89;20230;-79
2022/09/27 09:25:02;;;;;;;;;;;;;;;14.66;73.17;99059.03;1665393;83;20210;-79
2022/09/27 09:28:05;;;;;;;;;;;;;;;14.82;73.20;99064.19;1684325;83;20189;-79
2022/09/27 09:30:56;;;;;;;;;;;;;;;14.98;72.85;99060.23;1705656;83;20236;-79
2022/09/27 09:33:49;;;;;;;;;;;;;;;15.10;73.05;99057.72;1693012;82;20173;-79
2022/09/27 09:36:46;;;;;;;;;;;;;;;15.22;72.28;99059.59;1640736;83;5000643;-79
2022/09/27 09:39:40;;;;;;;;;;;;;;;15.27;72.67;99059.78;1672684;83;20459;-79
2022/09/27 09:42:44;;;;;;;;;;;;;;;15.33;72.67;99056.81;1680762;83;20180;-79
2022/09/27 09:45:34;;;;;;;;;;;;;;;15.34;72.55;99058.02;1694721;83;20236;-79
2022/09/27 09:48:25;;;;;;;;;;;;;;;15.44;72.71;99064.34;1691218;83;20180;-79
2022/09/27 09:51:21;;;;;;;;;;;;;;;15.56;72.32;99060.16;1693036;83;20186;-79
2022/09/27 09:54:26;;;;;;;;;;;;;;;15.64;72.48;99057.92;1688069;83;20211;-79
2022/09/27 09:57:14;;;;;;;;;;;;;;;15.80;72.53;99061.27;1694611;83;20244;-79
2022/09/27 10:00:02;;;;;;;;;;;;;;;15.97;72.44;99054.16;1718042;82;20415;-79
2022/09/27 10:02:48;;;;;;;;;;;;;;;16.07;72.33;99058.70;1677865;83;20445;-79
2022/09/27 10:05:32;;;;;;;;;;;;;;;16.14;72.29;99053.44;1697617;83;20107;-79
2022/09/27 10:08:21;;;;;;;;;;;;;;;16.22;71.82;99049.04;1693117;83;20105;-79
2022/09/27 10:11:08;;;;;;;;;;;;;;;16.25;71.98;99051.45;1689592;83;20138;-79
2022/09/27 10:13:54;;;;;;;;;;;;;;;16.27;71.90;99050.05;1697350;83;20103;-79
2022/09/27 10:16:44;;;;;;;;;;;;;;;16.26;71.70;99052.28;1698945;83;20453;-79
2022/09/27 10:19:33;;;;;;;;;;;;;;;16.27;71.88;99043.06;1688230;83;20156;-79
2022/09/27 10:22:31;;;;;;;;;;;;;;;16.27;71.85;99043.06;1697883;83;20203;-79
2022/09/27 10:25:16;;;;;;;;;;;;;;;16.38;71.67;99047.59;1677209;83;20204;-79
2022/09/27 10:28:01;;;;;;;;;;;;;;;16.42;71.62;99042.55;1670198;83;20525;-79
2022/09/27 10:30:48;;;;;;;;;;;;;;;16.48;71.74;99040.37;1691743;83;20181;-79
2022/09/27 10:33:34;;;;;;;;;;;;;;;16.50;71.35;99039.80;1658026;85;20192;-79
2022/09/27 10:36:25;;;;;;;;;;;;;;;16.57;71.46;99035.48;1663404;84;20126;-79
2022/09/27 10:39:17;;;;;;;;;;;;;;;16.62;71.36;99039.94;1648295;84;20206;-79
2022/09/27 10:42:01;;;;;;;;;;;;;;;16.57;71.09;99032.87;1668351;84;20406;-79
2022/09/27 10:44:46;;;;;;;;;;;;;;;16.43;71.04;99034.62;1664149;84;20204;-79
2022/09/27 10:47:31;;;;;;;;;;;;;;;16.34;71.05;99032.60;1650537;84;20192;-79
2022/09/27 10:50:20;;;;;;;;;;;;;;;16.29;71.07;99028.15;1658770;84;20242;-79
2022/09/27 10:53:13;;;;;;;;;;;;;;;16.22;70.98;99032.92;1658256;84;20201;-79
2022/09/27 10:55:58;;;;;;;;;;;;;;;16.18;70.98;99029.30;1650247;85;20179;-79
2022/09/27 10:58:45;;;;;;;;;;;;;;;16.09;70.84;99039.05;1647875;84;20202;-79
2022/09/27 11:01:42;;;;;;;;;;;;;;;15.96;70.81;99030.33;1671927;84;20321;-79
2022/09/27 11:04:35;;;;;;;;;;;;;;;15.84;70.81;99023.65;1652890;84;20206;-79
2022/09/27 11:07:22;;;;;;;;;;;;;;;15.80;69.81;99026.55;1658113;84;20202;-79
2022/09/27 11:10:23;;;;;;;;;;;;;;;15.79;70.84;99028.78;1645175;84;20145;-79
2022/09/27 11:13:14;;;;;;;;;;;;;;;15.84;70.86;99024.12;1656266;84;20171;-79
2022/09/27 11:16:11;;;;;;;;;;;;;;;15.84;70.87;99028.86;1669705;84;20205;-79
2022/09/27 11:19:15;;;;;;;;;;;;;;;15.85;70.83;99025.33;1663348;84;20537;-79
2022/09/27 11:22:18;;;;;;;;;;;;;;;15.87;70.82;99022.62;1655993;84;20205;-79
2022/09/27 11:25:29;;;;;;;;;;;;;;;15.87;70.69;99029.98;1656510;84;20207;-79
2022/09/27 11:28:23;;;;;;;;;;;;;;;15.87;70.72;99020.85;1678055;84;20376;-78
2022/09/27 11:31:34;;;;;;;;;;;;;;;15.85;70.62;99021.41;1654951;84;20208;-77
2022/09/27 11:34:31;;;;;;;;;;;;;;;15.81;70.37;99021.70;1678746;83;20207;-77
2022/09/27 11:37:31;;;;;;;;;;;;;;;15.70;70.56;99013.72;1680115;83;20559;-77
2022/09/27 11:40:35;;;;;;;;;;;;;;;15.62;70.57;99008.98;1683556;83;20183;-77
2022/09/27 11:43:41;;;;;;;;;;;;;;;15.66;70.78;99008.33;1694709;83;20373;-78
2022/09/27 11:46:31;;;;;;;;;;;;;;;15.77;70.72;99013.70;1688980;83;20210;-78
2022/09/27 11:49:31;;;;;;;;;;;;;;;15.86;70.75;99010.52;1684201;83;20234;-77
2022/09/27 11:52:35;;;;;;;;;;;;;;;15.86;70.44;99009.22;1688751;83;20189;-77
2022/09/27 11:55:40;;;;;;;;;;;;;;;15.84;70.41;99001.50;1686768;83;20170;-77
2022/09/27 11:58:47;;;;;;;;;;;;;;;15.87;70.49;99002.61;1688721;83;20544;-77
2022/09/27 12:01:35;;;;;;;;;;;;;;;15.87;70.41;99007.81;1665574;83;20184;-77
2022/09/27 12:04:47;;;;;;;;;;;;;;;15.85;70.40;99005.77;1678970;84;20558;-77
2022/09/27 12:07:47;;;;;;;;;;;;;;;15.84;70.25;99005.88;1639774;86;20237;-77
2022/09/27 12:10:33;;;;;;;;;;;;;;;15.83;70.30;98994.61;1636944;86;20145;-77
2022/09/27 12:13:36;;;;;;;;;;;;;;;15.83;70.31;99000.29;1639823;86;20532;-77
2022/09/27 12:16:22;;;;;;;;;;;;;;;15.80;70.20;98995.27;1605673;88;20472;-77
2022/09/27 12:19:13;;;;;;;;;;;;;;;15.83;70.12;98994.61;1626341;86;20499;-77
2022/09/27 12:22:00;;;;;;;;;;;;;;;15.82;70.21;98990.33;1624468;86;20652;-77
2022/09/27 12:24:45;;;;;;;;;;;;;;;15.85;70.30;98995.34;1622138;86;20519;-77
2022/09/27 12:27:42;;;;;;;;;;;;;;;15.85;69.99;98997.95;1608427;86;20215;-77
2022/09/27 12:30:29;;;;;;;;;;;;;;;15.81;70.10;98998.25;1623734;86;20212;-76
2022/09/27 12:33:38;;;;;;;;;;;;;;;15.78;70.02;98998.44;1627834;86;20232;-78
2022/09/27 12:36:26;;;;;;;;;;;;;;;15.71;69.98;99002.36;1644086;86;20253;-78
2022/09/27 12:39:14;;;;;;;;;;;;;;;15.64;69.96;98998.47;1676639;83;20202;-78
2022/09/27 12:42:09;;;;;;;;;;;;;;;15.60;70.00;98999.62;1679793;83;20653;-78
2022/09/27 12:44:53;;;;;;;;;;;;;;;15.54;70.13;98991.69;1685357;83;20591;-78
2022/09/27 12:47:44;;;;;;;;;;;;;;;15.51;70.06;98990.11;1689556;83;20230;-78
2022/09/27 12:50:36;;;;;;;;;;;;;;;15.47;70.08;98985.18;1683777;83;20474;-78
2022/09/27 12:53:24;;;;;;;;;;;;;;;15.38;70.06;98992.26;1675234;83;20206;-78
2022/09/27 12:56:22;;;;;;;;;;;;;;;15.34;70.12;98991.61;1692606;83;20144;-78
2022/09/27 12:59:29;;;;;;;;;;;;;;;15.28;70.10;98990.68;1690540;83;20480;-78
2022/09/27 13:02:32;;;;;;;;;;;;;;;15.22;70.11;98989.75;1685402;83;20353;-78
2022/09/27 13:05:32;;;;;;;;;;;;;;;15.17;70.10;98979.61;1684466;83;20188;-79
2022/09/27 13:08:54;;;;;;;;;;;;;;;15.12;70.22;98980.36;1693911;83;20499;-79
2022/09/27 13:11:48;;;;;;;;;;;;;;;15.10;70.16;98976.17;1685190;83;20622;-78
2022/09/27 13:14:36;;;;;;;;;;;;;;;15.06;70.26;98972.11;1688517;83;20202;-78
2022/09/27 13:17:40;;;;;;;;;;;;;;;15.04;70.21;98968.77;1688293;83;20495;-78
2022/09/27 13:20:37;;;;;;;;;;;;;;;14.97;70.19;98966.16;1687102;83;20252;-79
2022/09/27 13:23:29;;;;;;;;;;;;;;;14.96;70.19;98967.92;1678198;83;20575;-78
2022/09/27 13:26:23;;;;;;;;;;;;;;;14.91;70.12;98968.66;1689676;83;20605;-79
2022/09/27 13:29:21;;;;;;;;;;;;;;;14.85;70.13;98958.62;1678169;83;20214;-77
2022/09/27 13:32:14;;;;;;;;;;;;;;;14.82;70.17;98950.53;1680755;83;21233;-77
2022/09/27 13:35:21;;;;;;;;;;;;;;;14.81;70.18;98954.52;1680748;83;20226;-77
2022/09/27 13:38:09;;;;;;;;;;;;;;;14.79;70.17;98949.87;1675652;83;20656;-76
2022/09/27 13:40:57;;;;;;;;;;;;;;;14.77;70.19;98942.63;1679314;83;20572;-77
2022/09/27 13:43:54;;;;;;;;;;;;;;;14.72;70.10;98945.50;1682465;83;20548;-76
2022/09/27 13:46:47;;;;;;;;;;;;;;;14.71;70.14;98941.22;1670494;83;20187;-78
2022/09/27 13:49:39;;;;;;;;;;;;;;;14.73;70.14;98938.06;1680182;83;20284;-77
2022/09/27 13:52:32;;;;;;;;;;;;;;;14.70;70.14;98940.02;1681113;82;20262;-78
2022/09/27 13:55:41;;;;;;;;;;;;;;;14.70;70.17;98947.82;1677679;83;20241;-78
2022/09/27 13:58:38;;;;;;;;;;;;;;;14.69;70.13;98941.78;1677570;83;20175;-80
2022/09/27 14:01:40;;;;;;;;;;;;;;;14.68;70.11;98940.56;1680966;82;20232;-80
2022/09/27 14:04:38;;;;;;;;;;;;;;;14.65;70.05;98940.28;1707889;83;20574;-80
2022/09/27 14:07:25;;;;;;;;;;;;;;;14.61;70.12;98942.70;1696154;83;20199;-80
2022/09/27 14:10:17;;;;;;;;;;;;;;;14.60;70.15;98950.13;1695146;83;20527;-80
2022/09/27 14:13:04;;;;;;;;;;;;;;;14.57;70.07;98948.55;1699008;83;20512;-80
2022/09/27 14:15:50;;;;;;;;;;;;;;;14.55;70.12;98957.39;1704411;83;20152;-80
2022/09/27 14:18:36;;;;;;;;;;;;;;;14.52;70.07;98957.11;1699778;83;20210;-80
2022/09/27 14:21:38;;;;;;;;;;;;;;;14.49;70.05;98954.69;1668814;83;20205;-79
2022/09/27 14:24:36;;;;;;;;;;;;;;;14.47;70.13;98960.44;1629024;86;20183;-78
2022/09/27 14:27:26;;;;;;;;;;;;;;;14.46;70.16;98956.63;1631066;86;20397;-78
2022/09/27 14:30:19;;;;;;;;;;;;;;;14.44;70.16;98951.98;1659691;84;20219;-78
2022/09/27 14:33:04;;;;;;;;;;;;;;;14.41;70.17;98949.52;1640351;84;20502;-78
2022/09/27 14:38:53;;;;;;;;;;;;;;;14.38;70.24;98947.94;1652396;85;20225;-77
2022/09/27 14:41:39;;;;;;;;;;;;;;;14.35;70.34;98947.28;1657325;85;20498;-77
2022/09/27 14:44:23;;;;;;;;;;;;;;;14.33;70.36;98939.56;1643278;85;20212;-77
2022/09/27 14:47:12;;;;;;;;;;;;;;;14.30;70.37;98942.34;1660292;85;20230;-77
2022/09/27 14:50:00;;;;;;;;;;;;;;;14.28;70.42;98938.16;1656244;85;20158;-77
2022/09/27 14:52:47;;;;;;;;;;;;;;;14.25;70.50;98933.51;1651712;85;20189;-78
2022/09/27 14:55:33;;;;;;;;;;;;;;;14.21;70.50;98935.91;1651413;85;21168;-78
2022/09/27 14:58:18;;;;;;;;;;;;;;;14.22;70.53;98935.45;1657063;85;20205;-79